createdAt,value
2018-04-11T00:01:02.988Z,4.17
2018-04-11T00:03:31.172Z,3.93
2018-04-11T00:05:59.320Z,3.63
2018-04-11T00:08:29.320Z,4.23
2018-04-11T00:10:57.493Z,3.33
2018-04-11T00:13:25.676Z,4.47
2018-04-11T00:16:07.091Z,4.32
2018-04-11T00:18:35.252Z,4.30
2018-04-11T00:21:03.431Z,5.30
2018-04-11T00:23:31.603Z,4.50
2018-04-11T00:25:59.751Z,4.30
2018-04-11T00:28:27.953Z,4.30
2018-04-11T00:30:56.118Z,4.40
2018-04-11T00:33:24.269Z,4.03
2018-04-11T00:35:52.430Z,5.60
2018-04-11T00:38:20.604Z,4.47
2018-04-11T00:40:49.808Z,4.60
2018-04-11T00:43:17.965Z,4.70
2018-04-11T00:45:46.133Z,5.10
2018-04-11T00:48:15.935Z,4.37
2018-04-11T00:50:44.092Z,5.10
2018-04-11T00:53:25.543Z,5.50
2018-04-11T00:55:53.706Z,5.83
2018-04-11T00:58:21.862Z,5.50
2018-04-11T01:00:50.023Z,5.80
2018-04-11T01:03:18.189Z,5.73
2018-04-11T01:05:46.336Z,5.40
2018-04-11T01:08:14.518Z,6.20
2018-04-11T01:10:42.663Z,5.83
2018-04-11T01:13:10.829Z,5.20
2018-04-11T01:15:38.995Z,6.33
2018-04-11T01:18:07.676Z,5.07
2018-04-11T01:20:35.886Z,5.80
2018-04-11T01:23:04.039Z,5.43
2018-04-11T01:25:32.209Z,5.80
2018-04-11T01:28:00.390Z,5.13
2018-04-11T01:30:28.555Z,5.30
2018-04-11T01:32:56.692Z,5.60
2018-04-11T01:35:24.864Z,5.70
2018-04-11T01:37:53.018Z,5.80
2018-04-11T01:40:21.261Z,5.33
2018-04-11T01:42:49.414Z,5.67
2018-04-11T01:47:52.371Z,5.77
2018-04-11T01:50:24.358Z,5.23
2018-04-11T01:52:58.859Z,5.77
2018-04-11T01:55:27.053Z,5.70
2018-04-11T01:57:55.192Z,6.10
2018-04-11T02:00:23.337Z,5.97
2018-04-11T02:02:51.494Z,5.90
2018-04-11T02:05:19.654Z,5.87
2018-04-11T02:07:47.878Z,6.53
2018-04-11T02:10:16.170Z,5.80
2018-04-11T02:12:44.393Z,6.40
2018-04-11T02:15:12.635Z,5.57
2018-04-11T02:17:40.793Z,6.00
2018-04-11T02:20:08.959Z,5.90
2018-04-11T02:22:37.098Z,5.80
2018-04-11T02:25:05.292Z,6.10
2018-04-11T02:27:33.443Z,6.53
2018-04-11T02:30:07.941Z,6.23
2018-04-11T02:32:36.999Z,6.60
2018-04-11T02:35:05.163Z,5.93
2018-04-11T02:37:33.324Z,6.90
2018-04-11T02:40:01.593Z,6.73
2018-04-11T02:42:29.797Z,7.03
2018-04-11T02:44:57.965Z,7.10
2018-04-11T02:47:26.128Z,7.10
2018-04-11T02:49:54.291Z,7.33
2018-04-11T02:52:23.726Z,7.00
2018-04-11T02:54:51.906Z,7.60
2018-04-11T02:57:20.128Z,7.00
2018-04-11T02:59:48.294Z,7.87
2018-04-11T03:02:16.454Z,8.37
2018-04-11T03:04:44.656Z,9.20
2018-04-11T03:07:12.835Z,8.17
2018-04-11T03:09:41.012Z,8.53
2018-04-11T03:12:09.263Z,8.73
2018-04-11T03:14:37.422Z,9.10
2018-04-11T03:17:05.870Z,8.73
2018-04-11T03:19:34.024Z,9.47
2018-04-11T03:22:02.219Z,9.20
2018-04-11T03:27:09.547Z,9.17
2018-04-11T03:29:37.800Z,9.70
2018-04-11T03:32:07.030Z,8.87
2018-04-11T03:34:36.703Z,9.40
2018-04-11T03:37:04.882Z,9.43
2018-04-11T03:39:33.050Z,10.57
2018-04-11T03:42:02.008Z,10.87
2018-04-11T03:44:30.147Z,10.60
2018-04-11T03:46:58.318Z,10.40
2018-04-11T03:49:26.521Z,10.37
2018-04-11T03:51:54.691Z,11.10
2018-04-11T03:54:22.859Z,11.53
2018-04-11T03:56:51.030Z,10.53
2018-04-11T03:59:19.225Z,11.20
2018-04-11T04:01:47.492Z,11.53
2018-04-11T04:04:15.648Z,10.97
2018-04-11T04:06:43.843Z,10.93
2018-04-11T04:09:18.209Z,10.90
2018-04-11T04:11:46.405Z,11.80
2018-04-11T04:14:26.144Z,11.30
2018-04-11T04:17:06.167Z,11.87
2018-04-11T04:22:43.623Z,10.80
2018-04-11T04:25:12.094Z,11.37
2018-04-11T04:27:43.176Z,11.70
2018-04-11T04:30:14.051Z,12.67
2018-04-11T04:32:44.141Z,11.90
2018-04-11T04:35:14.989Z,12.27
2018-04-11T04:37:44.899Z,11.80
2018-04-11T04:40:13.993Z,11.80
2018-04-11T04:42:42.285Z,12.70
2018-04-11T04:45:10.753Z,12.50
2018-04-11T04:47:41.733Z,12.00
2018-04-11T04:50:12.752Z,12.83
2018-04-11T04:52:43.693Z,11.93
2018-04-11T04:55:13.819Z,13.13
2018-04-11T04:57:45.353Z,13.40
2018-04-11T05:00:13.705Z,14.70
2018-04-11T05:02:43.780Z,13.17
2018-04-11T05:05:12.950Z,16.00
2018-04-11T05:07:42.073Z,15.23
2018-04-11T05:10:11.147Z,13.87
2018-04-11T05:12:42.196Z,15.23
2018-04-11T05:15:10.545Z,15.40
2018-04-11T05:17:40.638Z,13.50
2018-04-11T05:20:09.207Z,14.80
2018-04-11T05:22:37.557Z,14.00
2018-04-11T05:25:08.527Z,14.57
2018-04-11T05:27:38.608Z,15.57
2018-04-11T05:30:07.118Z,14.67
2018-04-11T05:32:36.116Z,14.77
2018-04-11T05:35:06.139Z,15.87
2018-04-11T05:37:39.059Z,15.43
2018-04-11T05:40:09.203Z,15.63
2018-04-11T05:42:39.237Z,14.77
2018-04-11T05:45:12.626Z,14.70
2018-04-11T05:47:42.749Z,16.10
2018-04-11T05:50:13.217Z,16.60
2018-04-11T05:52:42.244Z,15.53
2018-04-11T05:55:14.804Z,14.67
2018-04-11T05:57:43.188Z,19.40
2018-04-11T06:00:13.335Z,18.07
2018-04-11T06:05:36.755Z,17.50
2018-04-11T06:08:06.812Z,18.30
2018-04-11T06:10:35.131Z,18.07
2018-04-11T06:13:05.194Z,17.27
2018-04-11T06:15:36.158Z,14.50
2018-04-11T06:18:06.074Z,15.33
2018-04-11T06:20:35.140Z,15.07
2018-04-11T06:23:05.279Z,14.70
2018-04-11T06:25:36.203Z,14.60
2018-04-11T06:28:05.244Z,15.30
2018-04-11T06:30:36.072Z,15.17
2018-04-11T06:33:05.130Z,14.30
2018-04-11T06:35:33.617Z,14.00
2018-04-11T06:38:02.814Z,12.43
2018-04-11T06:40:31.334Z,13.87
2018-04-11T06:43:01.576Z,13.33
2018-04-11T06:45:30.615Z,13.93
2018-04-11T06:48:00.576Z,13.90
2018-04-11T06:50:30.520Z,14.80
2018-04-11T06:53:04.731Z,14.10
2018-04-11T06:55:33.300Z,14.80
2018-04-11T06:58:01.633Z,13.23
2018-04-11T07:00:30.022Z,13.07
2018-04-11T07:02:58.385Z,11.87
2018-04-11T07:05:31.771Z,10.47
2018-04-11T07:08:04.722Z,11.60
2018-04-11T07:10:33.287Z,11.47
2018-04-11T07:13:03.483Z,12.50
2018-04-11T07:15:32.605Z,11.80
2018-04-11T07:18:02.548Z,10.80
2018-04-11T07:20:32.750Z,10.60
2018-04-11T07:23:03.852Z,11.63
2018-04-11T07:25:32.115Z,12.07
2018-04-11T07:28:00.383Z,11.00
2018-04-11T07:30:31.369Z,9.40
2018-04-11T07:32:59.688Z,9.30
2018-04-11T07:35:28.170Z,9.97
2018-04-11T07:37:56.729Z,9.40
2018-04-11T07:40:26.814Z,9.00
2018-04-11T07:42:55.265Z,7.53
2018-04-11T07:45:25.342Z,7.60
2018-04-11T07:47:56.330Z,7.90
2018-04-11T07:50:25.436Z,7.20
2018-04-11T07:52:53.741Z,5.97
2018-04-11T07:55:29.402Z,7.60
2018-04-11T07:57:59.672Z,7.40
2018-04-11T08:00:31.046Z,9.53
2018-04-11T08:03:01.964Z,9.33
2018-04-11T08:05:30.357Z,8.93
2018-04-11T08:07:58.658Z,4.40
2018-04-11T08:10:28.655Z,7.90
2018-04-11T08:12:57.245Z,5.53
2018-04-11T08:15:26.247Z,6.10
2018-04-11T08:17:54.930Z,5.67
2018-04-11T08:20:26.977Z,4.17
2018-04-11T08:22:55.279Z,3.83
2018-04-11T08:25:45.774Z,4.03
2018-04-11T08:28:15.961Z,4.43
2018-04-11T08:30:46.051Z,4.70
2018-04-11T08:33:16.139Z,5.20
2018-04-11T08:35:50.229Z,3.40
2018-04-11T08:38:20.323Z,2.77
2018-04-11T08:40:50.497Z,2.50
2018-04-11T08:43:19.582Z,2.80
2018-04-11T08:45:48.701Z,2.23
2018-04-11T08:48:20.961Z,1.33
2018-04-11T08:50:51.047Z,1.33
2018-04-11T08:53:20.192Z,1.50
2018-04-11T08:55:48.789Z,2.10
2018-04-11T08:58:30.317Z,2.53
2018-04-11T09:01:00.384Z,2.97
2018-04-11T09:03:30.582Z,4.03
2018-04-11T09:06:00.519Z,4.57
2018-04-11T09:08:32.164Z,4.00
2018-04-11T09:11:02.225Z,4.47
2018-04-11T09:13:33.037Z,4.17
2018-04-11T09:16:01.312Z,4.40
2018-04-11T09:18:30.319Z,4.80
2018-04-11T09:20:59.433Z,4.37
2018-04-11T09:23:29.421Z,4.10
2018-04-11T09:25:59.658Z,3.90
2018-04-11T09:28:30.652Z,5.03
2018-04-11T09:31:00.875Z,3.30
2018-04-11T09:33:29.245Z,3.10
2018-04-11T09:35:59.265Z,3.03
2018-04-11T09:38:44.599Z,3.10
2018-04-11T09:41:27.333Z,2.93
2018-04-11T09:43:57.452Z,3.30
2018-04-11T09:46:27.560Z,3.30
2018-04-11T09:48:57.370Z,3.57
2018-04-11T09:51:27.392Z,3.37
2018-04-11T09:53:57.424Z,3.80
2018-04-11T09:56:26.810Z,3.97
2018-04-11T09:58:56.905Z,3.60
2018-04-11T10:01:45.183Z,3.60
2018-04-11T10:04:13.671Z,4.10
2018-04-11T10:06:42.734Z,4.43
2018-04-11T10:09:16.559Z,3.73
2018-04-11T10:11:45.032Z,4.20
2018-04-11T10:14:13.438Z,4.43
2018-04-11T10:16:43.420Z,4.57
2018-04-11T10:19:14.936Z,4.13
2018-04-11T10:21:45.884Z,4.53
2018-04-11T10:24:17.872Z,4.10
2018-04-11T10:26:46.120Z,4.20
2018-04-11T10:29:19.394Z,4.00
2018-04-11T10:31:49.418Z,4.77
2018-04-11T10:34:19.522Z,4.60
2018-04-11T10:36:49.671Z,4.97
2018-04-11T10:39:26.957Z,4.90
2018-04-11T10:41:56.160Z,4.60
2018-04-11T10:44:26.396Z,5.07
2018-04-11T10:46:56.406Z,5.70
2018-04-11T10:49:24.992Z,5.87
2018-04-11T10:51:54.977Z,5.30
2018-04-11T10:54:24.930Z,5.87
2018-04-11T10:56:55.016Z,5.43
2018-04-11T10:59:23.321Z,5.10
2018-04-11T11:01:54.356Z,6.40
2018-04-11T11:04:31.908Z,6.50
2018-04-11T11:07:03.055Z,5.20
2018-04-11T11:09:33.206Z,5.30
2018-04-11T11:12:03.358Z,4.90
2018-04-11T11:14:33.540Z,5.10
2018-04-11T11:17:02.688Z,5.80
2018-04-11T11:19:43.297Z,4.87
2018-04-11T11:22:13.531Z,4.80
2018-04-11T11:24:50.142Z,4.30
2018-04-11T11:27:19.242Z,4.60
2018-04-11T11:29:49.033Z,4.60
2018-04-11T11:32:20.084Z,4.50
2018-04-11T11:34:50.195Z,4.50
2018-04-11T11:37:31.077Z,5.03
2018-04-11T11:39:59.537Z,5.27
2018-04-11T11:42:29.579Z,4.83
2018-04-11T11:45:03.723Z,5.07
2018-04-11T11:47:39.920Z,4.77
2018-04-11T11:50:09.853Z,4.77
2018-04-11T11:52:38.876Z,4.60
2018-04-11T11:55:10.241Z,4.40
2018-04-11T11:57:40.362Z,4.40
2018-04-11T12:00:10.426Z,4.13
2018-04-11T12:02:44.683Z,4.00
2018-04-11T12:05:12.978Z,4.30
2018-04-11T12:07:41.339Z,3.60
2018-04-11T12:10:12.281Z,4.23
2018-04-11T12:12:47.770Z,4.57
2018-04-11T12:15:16.112Z,4.20
2018-04-11T12:17:44.494Z,4.33
2018-04-11T12:20:14.437Z,4.40
2018-04-11T12:22:46.093Z,4.97
2018-04-11T12:25:16.653Z,4.33
2018-04-11T12:27:45.090Z,4.10
2018-04-11T12:30:13.486Z,4.00
2018-04-11T12:32:43.429Z,4.10
2018-04-11T12:35:13.402Z,4.30
2018-04-11T12:37:43.522Z,4.20
2018-04-11T12:40:13.719Z,4.87
2018-04-11T12:42:42.757Z,4.90
2018-04-11T12:45:16.882Z,5.10
2018-04-11T12:47:45.351Z,5.40
2018-04-11T12:50:13.846Z,5.10
2018-04-11T12:52:45.499Z,4.73
2018-04-11T12:55:13.816Z,5.60
2018-04-11T12:57:42.853Z,4.97
2018-04-11T13:00:12.828Z,6.23
2018-04-11T13:02:41.275Z,5.57
2018-04-11T13:05:09.674Z,5.43
2018-04-11T13:07:37.971Z,4.83
2018-04-11T13:10:08.005Z,5.17
2018-04-11T13:12:36.445Z,5.33
2018-04-11T13:15:06.551Z,5.60
2018-04-11T13:17:36.515Z,6.00
2018-04-11T13:20:07.056Z,4.93
2018-04-11T13:22:39.508Z,5.70
2018-04-11T13:25:12.799Z,5.73
2018-04-11T13:27:41.274Z,6.30
2018-04-11T13:30:12.234Z,5.40
2018-04-11T13:32:40.598Z,6.13
2018-04-11T13:35:08.884Z,5.77
2018-04-11T13:37:48.946Z,5.10
2018-04-11T13:40:19.749Z,5.67
2018-04-11T13:42:48.148Z,5.27
2018-04-11T13:45:32.853Z,5.43
2018-04-11T13:48:01.187Z,5.00
2018-04-11T13:50:29.673Z,4.90
2018-04-11T13:52:58.054Z,5.30
2018-04-11T13:55:30.819Z,4.67
2018-04-11T13:58:09.656Z,5.53
2018-04-11T14:00:39.598Z,5.37
2018-04-11T14:03:07.979Z,5.50
2018-04-11T14:05:38.075Z,5.83
2018-04-11T14:08:07.202Z,5.90
2018-04-11T14:10:37.236Z,5.53
2018-04-11T14:13:09.141Z,5.43
2018-04-11T14:15:40.000Z,6.00
2018-04-11T14:20:41.499Z,4.93
2018-04-11T14:23:09.738Z,5.20
2018-04-11T14:25:39.885Z,4.97
2018-04-11T14:28:08.263Z,5.87
2018-04-11T14:30:37.092Z,5.20
2018-04-11T14:33:05.421Z,6.03
2018-04-11T14:35:37.647Z,6.10
2018-04-11T14:38:07.782Z,6.40
2018-04-11T14:40:37.127Z,6.30
2018-04-11T14:43:05.514Z,5.90
2018-04-11T14:45:39.211Z,5.90
2018-04-11T14:48:09.429Z,5.10
2018-04-11T14:50:38.887Z,5.17
2018-04-11T14:53:10.915Z,4.20
2018-04-11T14:55:40.010Z,6.47
2018-04-11T14:58:13.443Z,5.23
2018-04-11T15:00:43.737Z,5.67
2018-04-11T15:03:12.226Z,5.57
2018-04-11T15:05:42.291Z,4.83
2018-04-11T15:08:15.433Z,4.53
2018-04-11T15:10:45.564Z,4.53
2018-04-11T15:13:15.665Z,5.23
2018-04-11T15:15:43.931Z,4.50
2018-04-11T15:18:12.437Z,4.83
2018-04-11T15:20:40.835Z,5.40
2018-04-11T15:23:10.870Z,4.70
2018-04-11T15:25:40.563Z,5.40
2018-04-11T15:28:11.935Z,6.00
2018-04-11T15:30:46.947Z,6.05
2018-04-11T15:33:36.723Z,5.77
2018-04-11T15:36:06.761Z,5.07
2018-04-11T15:38:36.350Z,6.17
2018-04-11T15:43:58.778Z,6.67
2018-04-11T15:46:38.702Z,6.23
2018-04-11T15:49:09.216Z,5.43
2018-04-11T15:51:42.018Z,6.07
2018-04-11T15:54:10.346Z,5.47
2018-04-11T15:56:41.269Z,5.10
2018-04-11T15:59:11.358Z,6.57
2018-04-11T16:01:45.036Z,5.60
2018-04-11T16:04:15.139Z,5.10
2018-04-11T16:06:50.468Z,4.90
2018-04-11T16:09:19.602Z,5.23
2018-04-11T16:11:47.954Z,4.60
2018-04-11T16:14:16.437Z,5.13
2018-04-11T16:16:52.057Z,5.30
2018-04-11T16:22:04.071Z,5.90
2018-04-11T16:27:12.930Z,6.17
2018-04-11T16:29:43.055Z,5.90
2018-04-11T16:34:46.025Z,6.07
2018-04-11T16:37:15.170Z,6.70
2018-04-11T16:39:52.354Z,6.93
2018-04-11T16:42:22.603Z,6.30
2018-04-11T16:44:53.469Z,6.97
2018-04-11T16:47:27.920Z,6.87
2018-04-11T16:49:57.818Z,6.37
2018-04-11T16:52:28.800Z,6.70
2018-04-11T16:54:58.983Z,7.63
2018-04-11T16:57:27.514Z,6.90
2018-04-11T17:00:00.633Z,6.97
2018-04-11T17:02:28.904Z,6.90
2018-04-11T17:04:57.563Z,7.20
2018-04-11T17:07:31.617Z,7.70
2018-04-11T17:10:01.668Z,8.33
2018-04-11T17:12:31.777Z,7.70
2018-04-11T17:15:02.773Z,7.13
2018-04-11T17:17:34.136Z,7.60
2018-04-11T17:20:04.552Z,8.40
2018-04-11T17:25:33.977Z,31.30
2018-04-11T17:28:16.198Z,13.73
2018-04-11T17:30:59.112Z,11.37
2018-04-11T17:33:29.119Z,37.73
2018-04-11T17:35:57.613Z,15.90
2018-04-11T17:38:26.161Z,11.27
2018-04-11T17:40:57.195Z,9.40
2018-04-11T17:43:41.373Z,8.30
2018-04-11T17:46:09.825Z,10.20
2018-04-11T17:48:42.835Z,12.90
2018-04-11T17:51:13.816Z,17.07
2018-04-11T17:53:46.124Z,15.13
2018-04-11T17:56:19.531Z,9.80
2018-04-11T17:58:47.908Z,33.10
2018-04-11T18:01:17.901Z,10.20
2018-04-11T18:03:46.307Z,32.23
2018-04-11T18:06:16.482Z,33.10
2018-04-11T18:08:47.712Z,20.53
2018-04-11T18:11:16.168Z,32.10
2018-04-11T18:13:46.756Z,24.93
2018-04-11T18:16:19.184Z,21.63
2018-04-11T18:18:49.220Z,12.00
2018-04-11T18:21:17.522Z,22.40
2018-04-11T18:23:46.577Z,16.60
2018-04-11T18:26:20.391Z,36.60
2018-04-11T18:28:50.428Z,40.80
2018-04-11T18:31:20.630Z,10.30
2018-04-11T18:33:49.109Z,8.90
2018-04-11T18:36:17.626Z,11.97
2018-04-11T18:38:46.688Z,12.40
2018-04-11T18:41:15.077Z,8.57
2018-04-11T18:43:50.106Z,8.50
2018-04-11T18:46:21.103Z,8.27
2018-04-11T18:48:51.145Z,8.60
2018-04-11T18:51:19.567Z,9.93
2018-04-11T18:53:48.652Z,9.00
2018-04-11T18:56:18.060Z,8.57
2018-04-11T18:58:48.212Z,8.10
2018-04-11T19:01:18.369Z,7.53
2018-04-11T19:03:46.933Z,8.10
2018-04-11T19:06:16.084Z,7.93
2018-04-11T19:08:46.207Z,7.10
2018-04-11T19:11:19.423Z,7.73
2018-04-11T19:13:48.098Z,8.30
2018-04-11T19:16:19.065Z,6.43
2018-04-11T19:18:47.631Z,7.30
2018-04-11T19:21:17.875Z,7.93
2018-04-11T19:23:49.674Z,6.40
2018-04-11T19:26:18.175Z,7.30
2018-04-11T19:28:46.691Z,9.43
2018-04-11T19:31:16.287Z,8.30
2018-04-11T19:33:44.783Z,7.90
2018-04-11T19:36:13.579Z,6.70
2018-04-11T19:38:44.479Z,7.20
2018-04-11T19:41:14.590Z,7.40
2018-04-11T19:43:42.918Z,6.93
2018-04-11T19:46:15.850Z,7.77
2018-04-11T19:48:46.343Z,7.67
2018-04-11T19:51:17.416Z,7.70
2018-04-11T19:53:48.455Z,7.30
2018-04-11T19:56:18.632Z,7.97
2018-04-11T20:01:21.936Z,7.50
2018-04-11T20:03:52.199Z,8.77
2018-04-11T20:06:20.775Z,7.87
2018-04-11T20:08:49.220Z,7.00
2018-04-11T20:11:17.609Z,9.23
2018-04-11T20:13:48.990Z,7.40
2018-04-11T20:16:19.093Z,6.30
2018-04-11T20:18:47.511Z,7.20
2018-04-11T20:21:18.585Z,6.77
2018-04-11T20:23:47.653Z,6.80
2018-04-11T20:26:17.777Z,6.97
2018-04-11T20:28:46.868Z,7.83
2018-04-11T20:31:16.038Z,6.80
2018-04-11T20:33:45.167Z,6.20
2018-04-11T20:36:15.148Z,7.40
2018-04-11T20:38:43.567Z,6.30
2018-04-11T20:41:13.720Z,6.90
2018-04-11T20:43:43.735Z,7.03
2018-04-11T20:46:13.858Z,7.43
2018-04-11T20:48:44.719Z,7.27
2018-04-11T20:51:15.030Z,8.37
2018-04-11T20:53:46.589Z,7.20
2018-04-11T20:56:16.880Z,8.80
2018-04-11T20:58:47.933Z,7.67
2018-04-11T21:01:18.249Z,6.80
2018-04-11T21:03:46.734Z,8.10
2018-04-11T21:06:15.141Z,8.00
2018-04-11T21:08:45.245Z,8.67
2018-04-11T21:11:13.723Z,7.80
2018-04-11T21:13:42.057Z,8.43
2018-04-11T21:16:12.216Z,7.10
2018-04-11T21:18:42.278Z,7.83
2018-04-11T21:21:12.529Z,8.37
2018-04-11T21:23:42.600Z,9.30
2018-04-11T21:26:12.641Z,7.50
2018-04-11T21:28:40.921Z,8.43
2018-04-11T21:31:09.395Z,8.70
2018-04-11T21:33:39.705Z,8.80
2018-04-11T21:36:18.033Z,8.23
2018-04-11T21:38:47.230Z,8.63
2018-04-11T21:41:20.435Z,8.60
2018-04-11T21:43:53.478Z,8.00
2018-04-11T21:46:26.017Z,9.03
2018-04-11T21:48:56.060Z,9.90
2018-04-11T21:54:04.856Z,8.70
2018-04-11T21:56:34.059Z,8.37
2018-04-11T21:59:03.248Z,8.23
2018-04-11T22:01:34.205Z,9.00
2018-04-11T22:04:04.193Z,9.33
2018-04-11T22:06:32.786Z,8.67
2018-04-11T22:09:09.593Z,8.67
2018-04-11T22:11:44.847Z,9.37
2018-04-11T22:14:13.190Z,8.63
2018-04-11T22:16:43.373Z,8.77
2018-04-11T22:19:13.535Z,9.40
2018-04-11T22:21:44.680Z,8.70
2018-04-11T22:24:14.645Z,9.07
2018-04-11T22:26:44.886Z,9.17
2018-04-11T22:29:14.016Z,8.53
2018-04-11T22:31:44.307Z,9.87
2018-04-11T22:34:16.602Z,10.00
2018-04-11T22:36:46.590Z,9.80
2018-04-11T22:39:18.780Z,9.23
2018-04-11T22:41:47.266Z,10.30
2018-04-11T22:44:17.120Z,10.07
2018-04-11T22:46:47.170Z,9.20
2018-04-11T22:49:16.268Z,8.97
2018-04-11T22:51:47.497Z,9.67
2018-04-11T22:54:17.629Z,10.30
2018-04-11T22:56:45.913Z,8.97
2018-04-11T22:59:15.870Z,10.47
2018-04-11T23:01:46.049Z,9.47
2018-04-11T23:04:17.038Z,9.73
2018-04-11T23:06:45.282Z,8.63
2018-04-11T23:09:16.212Z,9.63
2018-04-11T23:11:46.302Z,8.70
2018-04-11T23:14:14.777Z,9.13
2018-04-11T23:16:44.892Z,9.00
2018-04-11T23:19:13.224Z,9.83
2018-04-11T23:21:42.320Z,9.80
2018-04-11T23:24:18.317Z,9.93
2018-04-11T23:26:47.387Z,9.77
2018-04-11T23:29:15.749Z,8.93
2018-04-11T23:31:45.852Z,8.87
2018-04-11T23:34:15.902Z,8.60
2018-04-11T23:36:46.044Z,8.60
2018-04-11T23:39:16.837Z,7.93
2018-04-11T23:41:46.897Z,8.27
2018-04-11T23:44:15.204Z,8.67
2018-04-11T23:46:45.240Z,7.40
2018-04-11T23:49:19.395Z,7.20
2018-04-11T23:51:49.427Z,7.60
2018-04-11T23:54:19.553Z,7.10
2018-04-11T23:56:49.565Z,7.23
2018-04-11T23:59:18.662Z,7.93
